createdAt,value
2017-05-03T00:00:53.708Z,0
2017-05-03T00:02:02.670Z,0
2017-05-03T00:03:11.931Z,0
2017-05-03T00:04:20.895Z,0
2017-05-03T00:05:29.850Z,0
2017-05-03T00:06:38.801Z,0
2017-05-03T00:07:47.843Z,0
2017-05-03T00:08:57.102Z,0
2017-05-03T00:10:06.059Z,0
2017-05-03T00:11:15.017Z,0
2017-05-03T00:12:23.966Z,0
2017-05-03T00:13:32.921Z,0
2017-05-03T00:14:42.176Z,0
2017-05-03T00:15:51.134Z,0
2017-05-03T00:17:00.086Z,0
2017-05-03T00:18:09.373Z,0
2017-05-03T00:19:18.332Z,0
2017-05-03T00:20:27.538Z,0
2017-05-03T00:21:36.584Z,0
2017-05-03T00:22:45.532Z,0
2017-05-03T00:23:54.495Z,0
2017-05-03T00:25:03.481Z,0
2017-05-03T00:26:12.741Z,0
2017-05-03T00:27:21.697Z,0
2017-05-03T00:28:30.653Z,0
2017-05-03T00:29:39.611Z,0
2017-05-03T00:30:48.570Z,0
2017-05-03T00:31:57.825Z,0
2017-05-03T00:33:06.786Z,0
2017-05-03T00:34:15.736Z,0
2017-05-03T00:35:24.697Z,0
2017-05-03T00:36:33.651Z,0
2017-05-03T00:37:42.912Z,0
2017-05-03T00:38:51.912Z,0
2017-05-03T00:40:01.202Z,0
2017-05-03T00:41:10.153Z,0
2017-05-03T00:42:19.111Z,0
2017-05-03T00:43:28.691Z,0
2017-05-03T00:44:37.649Z,0
2017-05-03T00:45:46.698Z,0
2017-05-03T00:46:55.655Z,0
2017-05-03T00:48:04.608Z,0
2017-05-03T00:49:13.868Z,0
2017-05-03T00:50:22.842Z,0
2017-05-03T00:51:31.793Z,0
2017-05-03T00:52:40.750Z,0
2017-05-03T00:53:49.703Z,0
2017-05-03T00:54:58.962Z,0
2017-05-03T00:56:08.008Z,0
2017-05-03T00:57:16.965Z,0
2017-05-03T00:58:25.918Z,0
2017-05-03T00:59:34.876Z,0
2017-05-03T01:00:44.134Z,0
2017-05-03T01:01:53.087Z,0
2017-05-03T01:03:02.042Z,0
2017-05-03T01:04:11.001Z,0
2017-05-03T01:05:19.958Z,0
2017-05-03T01:06:29.157Z,0
2017-05-03T01:07:38.705Z,0
2017-05-03T01:08:47.664Z,0
2017-05-03T01:09:56.946Z,0
2017-05-03T01:11:05.904Z,0
2017-05-03T01:12:15.163Z,0
2017-05-03T01:13:24.215Z,0
2017-05-03T01:14:33.177Z,0
2017-05-03T01:15:42.132Z,0
2017-05-03T01:16:51.093Z,0
2017-05-03T01:18:00.353Z,0
2017-05-03T01:19:09.396Z,0
2017-05-03T01:20:18.686Z,0
2017-05-03T01:21:27.645Z,0
2017-05-03T01:22:36.597Z,0
2017-05-03T01:23:45.801Z,0
2017-05-03T01:24:54.758Z,0
2017-05-03T01:26:03.712Z,0
2017-05-03T01:27:12.668Z,0
2017-05-03T01:28:21.722Z,0
2017-05-03T01:29:31.085Z,0
2017-05-03T01:30:40.043Z,0
2017-05-03T01:31:49.003Z,0
2017-05-03T01:32:57.961Z,0
2017-05-03T01:34:07.243Z,0
2017-05-03T01:35:16.528Z,0
2017-05-03T01:36:25.487Z,0
2017-05-03T01:37:34.437Z,0
2017-05-03T01:38:43.396Z,0
2017-05-03T01:39:52.438Z,0
2017-05-03T01:41:01.642Z,0
2017-05-03T01:42:10.602Z,0
2017-05-03T01:43:19.566Z,0
2017-05-03T01:44:28.852Z,0
2017-05-03T01:45:37.810Z,0
2017-05-03T01:46:47.018Z,0
2017-05-03T01:47:55.990Z,0
2017-05-03T01:49:04.949Z,0
2017-05-03T01:50:13.908Z,0
2017-05-03T01:51:23.283Z,0
2017-05-03T01:52:32.538Z,0
2017-05-03T01:53:41.494Z,0
2017-05-03T01:54:50.449Z,0
2017-05-03T01:55:59.410Z,0
2017-05-03T01:57:08.462Z,0
2017-05-03T01:58:17.805Z,0
2017-05-03T01:59:26.761Z,0
2017-05-03T02:00:35.710Z,0
2017-05-03T02:01:44.759Z,0
2017-05-03T02:02:53.714Z,0
2017-05-03T02:04:02.976Z,0
2017-05-03T02:05:11.932Z,0
2017-05-03T02:06:21.054Z,0
2017-05-03T02:07:30.008Z,0
2017-05-03T02:08:39.053Z,0
2017-05-03T02:09:48.308Z,0
2017-05-03T02:10:57.263Z,0
2017-05-03T02:12:06.229Z,0
2017-05-03T02:13:15.272Z,0
2017-05-03T02:14:24.229Z,0
2017-05-03T02:15:33.494Z,0
2017-05-03T02:16:42.479Z,0
2017-05-03T02:17:51.438Z,0
2017-05-03T02:19:00.398Z,0
2017-05-03T02:20:09.353Z,0
2017-05-03T02:21:18.605Z,0
2017-05-03T02:22:27.557Z,0
2017-05-03T02:23:36.525Z,0
2017-05-03T02:24:45.508Z,0
2017-05-03T02:25:54.550Z,0
2017-05-03T02:27:04.139Z,0
2017-05-03T02:28:13.132Z,0
2017-05-03T02:29:22.090Z,0
2017-05-03T02:30:31.046Z,0
2017-05-03T02:31:40.006Z,0
2017-05-03T02:32:49.266Z,0
2017-05-03T02:33:58.316Z,0
2017-05-03T02:35:07.597Z,0
2017-05-03T02:36:16.559Z,0
2017-05-03T02:37:25.509Z,0
2017-05-03T02:38:34.775Z,0
2017-05-03T02:39:43.823Z,0
2017-05-03T02:40:52.777Z,0
2017-05-03T02:42:01.772Z,0
2017-05-03T02:43:10.733Z,0
2017-05-03T02:44:19.942Z,0
2017-05-03T02:45:28.981Z,0
2017-05-03T02:46:38.020Z,0
2017-05-03T02:47:46.985Z,0
2017-05-03T02:48:56.026Z,0
2017-05-03T02:50:05.235Z,0
2017-05-03T02:51:14.184Z,0
2017-05-03T02:52:23.142Z,0
2017-05-03T02:53:32.101Z,0
2017-05-03T02:54:41.087Z,0
2017-05-03T02:55:50.345Z,0
2017-05-03T02:56:59.311Z,0
2017-05-03T02:58:08.265Z,0
2017-05-03T02:59:17.223Z,0
2017-05-03T03:00:26.178Z,0
2017-05-03T03:01:35.432Z,0
2017-05-03T03:02:44.393Z,0
2017-05-03T03:03:53.680Z,0
2017-05-03T03:05:02.638Z,0
2017-05-03T03:06:11.595Z,0
2017-05-03T03:07:20.804Z,0
2017-05-03T03:08:29.761Z,0
2017-05-03T03:09:39.450Z,0
2017-05-03T03:10:48.496Z,0
2017-05-03T03:11:57.534Z,0
2017-05-03T03:13:06.875Z,0
2017-05-03T03:14:15.835Z,0
2017-05-03T03:15:24.789Z,0
2017-05-03T03:16:33.831Z,0
2017-05-03T03:17:43.116Z,0
2017-05-03T03:18:52.332Z,0
2017-05-03T03:20:01.290Z,0
2017-05-03T03:21:10.246Z,0
2017-05-03T03:22:19.205Z,0
2017-05-03T03:23:28.494Z,0
2017-05-03T03:24:37.697Z,0
2017-05-03T03:25:46.658Z,0
2017-05-03T03:26:56.024Z,0
2017-05-03T03:28:04.980Z,0
2017-05-03T03:29:13.941Z,0
2017-05-03T03:30:23.326Z,0
2017-05-03T03:31:32.274Z,0
2017-05-03T03:32:41.232Z,0
2017-05-03T03:33:50.199Z,0
2017-05-03T03:34:59.156Z,0
2017-05-03T03:36:08.362Z,0
2017-05-03T03:37:17.316Z,0
2017-05-03T03:38:26.275Z,0
2017-05-03T03:39:35.314Z,0
2017-05-03T03:40:44.269Z,0
2017-05-03T03:41:53.475Z,0
2017-05-03T03:43:02.531Z,0
2017-05-03T03:44:11.497Z,0
2017-05-03T03:45:20.452Z,0
2017-05-03T03:46:29.416Z,0
2017-05-03T03:47:38.946Z,0
2017-05-03T03:48:48.237Z,0
2017-05-03T03:49:57.197Z,0
2017-05-03T03:51:06.161Z,0
2017-05-03T03:52:15.124Z,0
2017-05-03T03:53:24.742Z,0
2017-05-03T03:54:33.702Z,5
2017-05-03T03:55:42.980Z,5
2017-05-03T03:56:51.931Z,5
2017-05-03T03:58:00.895Z,5
2017-05-03T03:59:10.975Z,5
2017-05-03T04:00:19.937Z,5
2017-05-03T04:01:28.895Z,5
2017-05-03T04:02:37.847Z,5
2017-05-03T04:03:46.800Z,5
2017-05-03T04:04:56.195Z,5
2017-05-03T04:06:05.149Z,5
2017-05-03T04:07:14.104Z,5
2017-05-03T04:08:23.391Z,5
2017-05-03T04:09:32.356Z,5
2017-05-03T04:10:41.565Z,10
2017-05-03T04:11:50.521Z,5
2017-05-03T04:12:59.476Z,5
2017-05-03T04:14:08.431Z,5
2017-05-03T04:15:17.721Z,5
2017-05-03T04:16:26.932Z,10
2017-05-03T04:17:35.883Z,10
2017-05-03T04:18:44.843Z,10
2017-05-03T04:19:53.798Z,10
2017-05-03T04:21:02.751Z,10
2017-05-03T04:22:11.959Z,10
2017-05-03T04:23:20.913Z,10
2017-05-03T04:24:29.872Z,10
2017-05-03T04:25:38.831Z,5
2017-05-03T04:26:47.784Z,10
2017-05-03T04:27:56.988Z,10
2017-05-03T04:29:06.266Z,10
2017-05-03T04:30:15.219Z,10
2017-05-03T04:31:24.182Z,10
2017-05-03T04:32:33.130Z,10
2017-05-03T04:33:42.336Z,10
2017-05-03T04:34:51.294Z,10
2017-05-03T04:36:00.243Z,10
2017-05-03T04:37:09.373Z,10
2017-05-03T04:38:18.336Z,10
2017-05-03T04:39:27.547Z,15
2017-05-03T04:40:36.514Z,15
2017-05-03T04:41:45.467Z,15
2017-05-03T04:42:54.422Z,10
2017-05-03T04:44:03.796Z,10
2017-05-03T04:45:13.003Z,15
2017-05-03T04:46:21.956Z,15
2017-05-03T04:47:31.005Z,15
2017-05-03T04:48:39.964Z,10
2017-05-03T04:49:49.007Z,10
2017-05-03T04:50:58.298Z,10
2017-05-03T04:52:07.251Z,15
2017-05-03T04:53:16.212Z,15
2017-05-03T04:54:25.199Z,15
2017-05-03T04:55:34.154Z,15
2017-05-03T04:56:43.358Z,20
2017-05-03T04:57:52.318Z,15
2017-05-03T04:59:01.278Z,20
2017-05-03T05:00:10.230Z,20
2017-05-03T05:01:19.850Z,15
2017-05-03T05:02:29.375Z,20
2017-05-03T05:03:38.337Z,20
2017-05-03T05:04:47.291Z,20
2017-05-03T05:05:56.254Z,20
2017-05-03T05:07:05.210Z,20
2017-05-03T05:08:14.425Z,15
2017-05-03T05:09:23.377Z,15
2017-05-03T05:10:32.330Z,20
2017-05-03T05:11:41.281Z,20
2017-05-03T05:12:50.247Z,20
2017-05-03T05:13:59.461Z,25
2017-05-03T05:15:08.599Z,25
2017-05-03T05:16:17.555Z,30
2017-05-03T05:17:26.685Z,25
2017-05-03T05:18:35.641Z,25
2017-05-03T05:19:44.850Z,25
2017-05-03T05:20:53.805Z,25
2017-05-03T05:22:02.759Z,25
2017-05-03T05:23:11.803Z,25
2017-05-03T05:24:20.759Z,25
2017-05-03T05:25:29.960Z,25
2017-05-03T05:26:38.914Z,25
2017-05-03T05:27:47.868Z,25
2017-05-03T05:28:56.826Z,25
2017-05-03T05:30:05.790Z,30
2017-05-03T05:31:15.168Z,30
2017-05-03T05:32:24.119Z,25
2017-05-03T05:33:33.164Z,25
2017-05-03T05:34:42.116Z,30
2017-05-03T05:35:51.156Z,30
2017-05-03T05:37:00.359Z,30
2017-05-03T05:38:09.315Z,25
2017-05-03T05:39:18.267Z,30
2017-05-03T05:40:27.226Z,35
2017-05-03T05:41:36.187Z,40
2017-05-03T05:42:45.400Z,30
2017-05-03T05:43:54.357Z,25
2017-05-03T05:45:03.337Z,30
2017-05-03T05:46:12.544Z,30
2017-05-03T05:47:21.648Z,30
2017-05-03T05:48:31.023Z,25
2017-05-03T05:49:39.977Z,25
2017-05-03T05:50:48.964Z,30
2017-05-03T05:51:57.920Z,30
2017-05-03T05:53:07.952Z,30
2017-05-03T05:54:17.176Z,35
2017-05-03T05:55:26.892Z,30
2017-05-03T05:56:36.165Z,30
2017-05-03T05:57:45.123Z,30
2017-05-03T05:58:54.087Z,35
2017-05-03T06:00:03.291Z,40
2017-05-03T06:01:12.801Z,40
2017-05-03T06:02:21.915Z,40
2017-05-03T06:03:30.868Z,35
2017-05-03T06:04:39.833Z,40
2017-05-03T06:05:50.288Z,35
2017-05-03T06:07:01.237Z,40
2017-05-03T06:08:10.455Z,40
2017-05-03T06:09:19.407Z,40
2017-05-03T06:10:28.373Z,40
2017-05-03T06:11:37.595Z,40
2017-05-03T06:12:46.918Z,45
2017-05-03T06:13:55.959Z,50
2017-05-03T06:15:05.304Z,45
2017-05-03T06:16:14.264Z,55
2017-05-03T06:17:23.477Z,50
2017-05-03T06:18:32.435Z,55
2017-05-03T06:19:41.480Z,55
2017-05-03T06:20:50.444Z,55
2017-05-03T06:21:59.398Z,50
2017-05-03T06:23:08.614Z,45
2017-05-03T06:24:17.569Z,50
2017-05-03T06:25:26.523Z,60
2017-05-03T06:26:35.484Z,55
2017-05-03T06:27:44.442Z,55
2017-05-03T06:28:53.992Z,55
2017-05-03T06:30:02.948Z,70
2017-05-03T06:31:11.901Z,60
2017-05-03T06:32:20.857Z,65
2017-05-03T06:33:29.822Z,60
2017-05-03T06:34:39.036Z,85
2017-05-03T06:35:47.985Z,55
2017-05-03T06:36:56.950Z,60
2017-05-03T06:38:06.312Z,60
2017-05-03T06:39:15.266Z,65
2017-05-03T06:40:24.473Z,60
2017-05-03T06:41:33.461Z,70
2017-05-03T06:42:42.460Z,70
2017-05-03T06:43:51.501Z,70
2017-05-03T06:45:00.472Z,60
2017-05-03T06:46:09.679Z,65
2017-05-03T06:47:18.721Z,60
2017-05-03T06:48:27.680Z,60
2017-05-03T06:49:36.739Z,60
2017-05-03T06:50:45.808Z,75
2017-05-03T06:51:55.042Z,85
2017-05-03T06:53:04.021Z,75
2017-05-03T06:54:14.122Z,75
2017-05-03T06:55:23.086Z,75
2017-05-03T06:56:32.355Z,80
2017-05-03T06:57:41.573Z,110
2017-05-03T06:58:50.584Z,120
2017-05-03T06:59:59.866Z,95
2017-05-03T07:01:08.821Z,100
2017-05-03T07:02:17.774Z,115
2017-05-03T07:03:26.975Z,115
2017-05-03T07:04:35.939Z,70
2017-05-03T07:05:44.904Z,110
2017-05-03T07:06:53.857Z,135
2017-05-03T07:08:05.132Z,85
2017-05-03T07:09:14.668Z,105
2017-05-03T07:10:23.624Z,135
2017-05-03T07:11:32.852Z,105
2017-05-03T07:12:41.806Z,90
2017-05-03T07:13:50.758Z,95
2017-05-03T07:14:59.965Z,120
2017-05-03T07:16:09.183Z,95
2017-05-03T07:17:18.145Z,115
2017-05-03T07:18:27.111Z,85
2017-05-03T07:19:36.072Z,100
2017-05-03T07:20:45.295Z,85
2017-05-03T07:21:54.248Z,95
2017-05-03T07:23:03.525Z,105
2017-05-03T07:24:12.479Z,115
2017-05-03T07:25:21.436Z,140
2017-05-03T07:26:30.776Z,145
2017-05-03T07:27:39.736Z,135
2017-05-03T07:28:48.698Z,110
2017-05-03T07:29:57.662Z,110
2017-05-03T07:31:06.730Z,130
2017-05-03T07:32:16.023Z,130
2017-05-03T07:33:24.990Z,125
2017-05-03T07:34:33.953Z,185
2017-05-03T07:35:42.911Z,195
2017-05-03T07:36:51.887Z,200
2017-05-03T07:38:01.148Z,165
2017-05-03T07:39:10.109Z,140
2017-05-03T07:40:19.062Z,145
2017-05-03T07:41:28.045Z,145
2017-05-03T07:42:37.001Z,160
2017-05-03T07:43:46.214Z,130
2017-05-03T07:44:55.261Z,125
2017-05-03T07:46:04.625Z,130
2017-05-03T07:47:13.585Z,130
2017-05-03T07:48:22.541Z,165
2017-05-03T07:49:31.751Z,130
2017-05-03T07:50:40.712Z,145
2017-05-03T07:51:49.677Z,170
2017-05-03T07:52:58.641Z,180
2017-05-03T07:54:07.598Z,155
2017-05-03T07:55:16.804Z,200
2017-05-03T07:56:25.758Z,150
2017-05-03T07:57:34.712Z,150
2017-05-03T07:58:43.660Z,150
2017-05-03T07:59:52.614Z,155
2017-05-03T08:01:01.819Z,165
2017-05-03T08:02:10.781Z,170
2017-05-03T08:03:19.754Z,160
2017-05-03T08:04:28.715Z,145
2017-05-03T08:05:37.999Z,145
2017-05-03T08:06:47.204Z,145
2017-05-03T08:07:56.164Z,165
2017-05-03T08:09:05.449Z,150
2017-05-03T08:10:14.405Z,155
2017-05-03T08:11:23.363Z,165
2017-05-03T08:12:32.570Z,155
2017-05-03T08:13:41.612Z,145
2017-05-03T08:14:50.895Z,195
2017-05-03T08:15:59.965Z,155
2017-05-03T08:17:09.040Z,160
2017-05-03T08:18:18.376Z,150
2017-05-03T08:19:27.369Z,150
2017-05-03T08:20:36.349Z,150
2017-05-03T08:21:45.967Z,145
2017-05-03T08:22:54.937Z,135
2017-05-03T08:24:04.196Z,145
2017-05-03T08:25:13.500Z,145
2017-05-03T08:26:23.014Z,145
2017-05-03T08:27:32.374Z,160
2017-05-03T08:28:41.517Z,160
2017-05-03T08:29:50.772Z,155
2017-05-03T08:30:59.755Z,170
2017-05-03T08:32:08.748Z,160
2017-05-03T08:33:17.733Z,165
2017-05-03T08:34:26.720Z,195
2017-05-03T08:35:36.035Z,190
2017-05-03T08:36:45.008Z,185
2017-05-03T08:37:53.984Z,175
2017-05-03T08:39:02.961Z,205
2017-05-03T08:40:12.030Z,195
2017-05-03T08:41:21.256Z,175
2017-05-03T08:42:30.243Z,160
2017-05-03T08:43:39.223Z,165
2017-05-03T08:44:48.179Z,175
2017-05-03T08:45:57.226Z,165
2017-05-03T08:47:06.481Z,150
2017-05-03T08:48:15.520Z,140
2017-05-03T08:49:24.643Z,135
2017-05-03T08:50:33.729Z,140
2017-05-03T08:51:42.816Z,135
2017-05-03T08:52:52.451Z,155
2017-05-03T08:54:01.606Z,165
2017-05-03T08:55:10.604Z,175
2017-05-03T08:56:19.946Z,170
2017-05-03T08:57:29.029Z,165
2017-05-03T08:58:39.015Z,175
2017-05-03T08:59:48.176Z,155
2017-05-03T09:00:57.513Z,170
2017-05-03T09:02:06.841Z,195
2017-05-03T09:03:16.032Z,180
2017-05-03T09:04:25.300Z,185
2017-05-03T09:05:34.360Z,185
2017-05-03T09:06:43.642Z,195
2017-05-03T09:07:52.804Z,200
2017-05-03T09:09:01.936Z,195
2017-05-03T09:10:11.228Z,200
2017-05-03T09:11:20.294Z,215
2017-05-03T09:12:29.252Z,210
2017-05-03T09:13:38.211Z,215
2017-05-03T09:14:47.458Z,260
2017-05-03T09:15:57.001Z,220
2017-05-03T09:17:05.989Z,205
2017-05-03T09:18:15.038Z,210
2017-05-03T09:19:24.313Z,240
2017-05-03T09:20:33.864Z,230
2017-05-03T09:21:43.110Z,190
2017-05-03T09:22:52.168Z,195
2017-05-03T09:24:01.487Z,185
2017-05-03T09:25:10.765Z,165
2017-05-03T09:26:19.895Z,195
2017-05-03T09:27:29.241Z,180
2017-05-03T09:28:38.281Z,175
2017-05-03T09:29:47.256Z,140
2017-05-03T09:30:56.214Z,125
2017-05-03T09:32:05.231Z,135
2017-05-03T09:33:14.591Z,135
2017-05-03T09:34:23.613Z,145
2017-05-03T09:35:32.750Z,140
2017-05-03T09:36:41.818Z,175
2017-05-03T09:37:51.013Z,180
2017-05-03T09:39:01.136Z,180
2017-05-03T09:40:10.222Z,185
2017-05-03T09:41:19.396Z,210
2017-05-03T09:42:28.599Z,180
2017-05-03T09:43:37.827Z,175
2017-05-03T09:44:47.552Z,190
2017-05-03T09:45:56.724Z,200
2017-05-03T09:47:06.243Z,205
2017-05-03T09:48:15.389Z,200
2017-05-03T09:49:24.546Z,205
2017-05-03T09:50:33.986Z,180
2017-05-03T09:51:43.118Z,165
2017-05-03T09:52:52.340Z,145
2017-05-03T09:54:01.369Z,150
2017-05-03T09:55:10.448Z,165
2017-05-03T09:56:19.742Z,135
2017-05-03T09:57:28.706Z,160
2017-05-03T09:58:37.749Z,175
2017-05-03T09:59:46.709Z,250
2017-05-03T10:00:55.666Z,275
2017-05-03T10:02:04.877Z,205
2017-05-03T10:03:14.110Z,210
2017-05-03T10:04:23.345Z,230
2017-05-03T10:05:32.489Z,245
2017-05-03T10:06:41.657Z,235
2017-05-03T10:07:51.149Z,240
2017-05-03T10:09:00.387Z,225
2017-05-03T10:10:09.625Z,245
2017-05-03T10:11:18.842Z,210
2017-05-03T10:12:28.157Z,220
2017-05-03T10:13:37.590Z,230
2017-05-03T10:14:46.755Z,195
2017-05-03T10:15:55.901Z,205
2017-05-03T10:17:05.447Z,185
2017-05-03T10:18:14.533Z,145
2017-05-03T10:19:23.744Z,155
2017-05-03T10:20:32.701Z,170
2017-05-03T10:21:41.667Z,170
2017-05-03T10:22:50.623Z,180
2017-05-03T10:25:08.844Z,170
2017-05-03T10:26:17.801Z,155
2017-05-03T10:27:26.759Z,185
2017-05-03T10:28:35.725Z,160
2017-05-03T10:29:44.679Z,155
2017-05-03T10:30:53.892Z,185
2017-05-03T10:32:02.844Z,220
2017-05-03T10:33:11.889Z,230
2017-05-03T10:34:20.838Z,210
2017-05-03T10:35:30.123Z,215
2017-05-03T10:36:39.329Z,210
2017-05-03T10:37:48.383Z,205
2017-05-03T10:38:57.337Z,190
2017-05-03T10:40:06.289Z,215
2017-05-03T10:41:15.251Z,185
2017-05-03T10:42:24.472Z,185
2017-05-03T10:43:33.433Z,205
2017-05-03T10:44:42.391Z,250
2017-05-03T10:45:51.436Z,210
2017-05-03T10:47:00.386Z,195
2017-05-03T10:48:09.589Z,205
2017-05-03T10:49:18.547Z,175
2017-05-03T10:50:27.857Z,160
2017-05-03T10:51:37.001Z,125
2017-05-03T10:52:46.092Z,125
2017-05-03T10:53:55.361Z,160
2017-05-03T10:55:04.315Z,175
2017-05-03T10:56:13.371Z,220
2017-05-03T10:57:22.645Z,175
2017-05-03T10:58:31.776Z,155
2017-05-03T10:59:40.996Z,155
2017-05-03T11:00:50.033Z,205
2017-05-03T11:01:58.996Z,185
2017-05-03T11:03:08.052Z,155
2017-05-03T11:04:17.294Z,135
2017-05-03T11:05:26.534Z,175
2017-05-03T11:06:35.590Z,195
2017-05-03T11:07:44.691Z,230
2017-05-03T11:08:53.874Z,175
2017-05-03T11:10:03.010Z,205
2017-05-03T11:11:12.220Z,165
2017-05-03T11:12:21.175Z,165
2017-05-03T11:13:30.134Z,175
2017-05-03T11:14:39.085Z,165
2017-05-03T11:15:48.039Z,165
2017-05-03T11:16:57.244Z,175
2017-05-03T11:18:06.283Z,165
2017-05-03T11:19:15.241Z,195
2017-05-03T11:20:24.288Z,240
2017-05-03T11:21:33.251Z,215
2017-05-03T11:22:42.790Z,235
2017-05-03T11:23:51.748Z,205
2017-05-03T11:25:00.708Z,205
2017-05-03T11:26:10.328Z,205
2017-05-03T11:27:19.389Z,200
2017-05-03T11:28:28.640Z,185
2017-05-03T11:29:37.591Z,190
2017-05-03T11:30:46.557Z,180
2017-05-03T11:31:55.997Z,200
2017-05-03T11:33:04.950Z,205
2017-05-03T11:34:14.154Z,190
2017-05-03T11:35:23.109Z,210
2017-05-03T11:36:32.079Z,220
2017-05-03T11:37:41.041Z,205
2017-05-03T11:38:50.081Z,210
2017-05-03T11:39:59.287Z,200
2017-05-03T11:41:08.243Z,175
2017-05-03T11:42:17.532Z,185
2017-05-03T11:43:26.497Z,175
2017-05-03T11:44:35.542Z,180
2017-05-03T11:45:44.803Z,215
2017-05-03T11:46:53.761Z,190
2017-05-03T11:48:02.722Z,205
2017-05-03T11:49:11.724Z,190
2017-05-03T11:50:20.674Z,170
2017-05-03T11:51:29.881Z,170
2017-05-03T11:52:38.921Z,140
2017-05-03T11:53:47.875Z,150
2017-05-03T11:54:56.833Z,150
2017-05-03T11:56:06.109Z,115
2017-05-03T11:57:15.402Z,150
2017-05-03T11:58:24.353Z,170
2017-05-03T11:59:33.309Z,175
2017-05-03T12:00:42.270Z,175
2017-05-03T12:01:51.249Z,170
2017-05-03T12:03:00.547Z,165
2017-05-03T12:04:09.506Z,180
2017-05-03T12:05:18.458Z,145
2017-05-03T12:06:27.591Z,150
2017-05-03T12:07:37.006Z,175
2017-05-03T12:08:46.486Z,190
2017-05-03T12:09:55.456Z,185
2017-05-03T12:11:04.409Z,170
2017-05-03T12:12:13.370Z,190
2017-05-03T12:13:23.060Z,190
2017-05-03T12:14:32.266Z,165
2017-05-03T12:15:41.220Z,150
2017-05-03T12:16:50.183Z,140
2017-05-03T12:17:59.138Z,130
2017-05-03T12:19:08.185Z,125
2017-05-03T12:20:17.399Z,145
2017-05-03T12:21:26.354Z,135
2017-05-03T12:22:35.313Z,145
2017-05-03T12:23:44.268Z,140
2017-05-03T12:24:53.304Z,150
2017-05-03T12:26:02.562Z,175
2017-05-03T12:27:11.514Z,200
2017-05-03T12:28:20.475Z,210
2017-05-03T12:29:29.431Z,215
2017-05-03T12:30:38.943Z,180
2017-05-03T12:31:48.159Z,175
2017-05-03T12:32:57.860Z,185
2017-05-03T12:34:06.816Z,170
2017-05-03T12:35:15.774Z,140
2017-05-03T12:36:24.731Z,135
2017-05-03T12:37:33.944Z,155
2017-05-03T12:38:42.910Z,185
2017-05-03T12:39:51.864Z,170
2017-05-03T12:41:00.909Z,165
2017-05-03T12:42:09.865Z,165
2017-05-03T12:43:19.163Z,160
2017-05-03T12:44:28.120Z,140
2017-05-03T12:45:37.079Z,125
2017-05-03T12:46:46.035Z,120
2017-05-03T12:47:55.080Z,125
2017-05-03T12:49:04.664Z,165
2017-05-03T12:50:13.624Z,150
2017-05-03T12:51:22.583Z,175
2017-05-03T12:52:31.865Z,185
2017-05-03T12:53:40.829Z,180
2017-05-03T12:54:50.034Z,180
2017-05-03T12:55:58.997Z,145
2017-05-03T12:57:07.953Z,140
2017-05-03T12:58:16.998Z,130
2017-05-03T12:59:25.959Z,145
2017-05-03T13:00:35.222Z,170
2017-05-03T13:01:44.182Z,155
2017-05-03T13:02:53.172Z,145
2017-05-03T13:04:02.162Z,135
2017-05-03T13:05:11.451Z,140
2017-05-03T13:06:21.039Z,140
2017-05-03T13:07:30.575Z,135
2017-05-03T13:08:39.529Z,135
2017-05-03T13:09:48.816Z,125
2017-05-03T13:10:57.778Z,90
2017-05-03T13:12:07.013Z,100
2017-05-03T13:13:15.971Z,100
2017-05-03T13:14:25.100Z,145
2017-05-03T13:15:34.067Z,175
2017-05-03T13:16:43.036Z,200
2017-05-03T13:17:52.627Z,205
2017-05-03T13:19:01.725Z,160
2017-05-03T13:20:11.018Z,165
2017-05-03T13:21:20.268Z,150
2017-05-03T13:22:29.433Z,150
2017-05-03T13:23:38.864Z,135
2017-05-03T13:24:48.063Z,120
2017-05-03T13:25:57.128Z,110
2017-05-03T13:27:06.559Z,115
2017-05-03T13:28:15.766Z,130
2017-05-03T13:29:25.199Z,140
2017-05-03T13:30:34.289Z,155
2017-05-03T13:31:43.442Z,150
2017-05-03T13:32:52.503Z,145
2017-05-03T13:34:01.703Z,140
2017-05-03T13:35:10.950Z,145
2017-05-03T13:36:19.906Z,140
2017-05-03T13:37:28.862Z,130
2017-05-03T13:38:37.820Z,120
2017-05-03T13:39:46.781Z,110
2017-05-03T13:40:56.080Z,125
2017-05-03T13:42:05.042Z,135
2017-05-03T13:43:14.169Z,130
2017-05-03T13:44:23.400Z,120
2017-05-03T13:45:32.373Z,90
2017-05-03T13:46:41.755Z,65
2017-05-03T13:47:50.796Z,70
2017-05-03T13:48:59.767Z,70
2017-05-03T13:50:08.733Z,65
2017-05-03T13:51:17.694Z,75
2017-05-03T13:52:27.157Z,70
2017-05-03T13:53:36.122Z,50
2017-05-03T13:54:45.085Z,45
2017-05-03T13:55:54.129Z,45
2017-05-03T13:57:03.091Z,45
2017-05-03T13:58:12.305Z,50
2017-05-03T13:59:21.294Z,55
2017-05-03T14:00:30.263Z,60
2017-05-03T14:01:39.221Z,70
2017-05-03T14:02:48.386Z,75
2017-05-03T14:03:57.742Z,85
2017-05-03T14:05:06.857Z,85
2017-05-03T14:06:15.954Z,90
2017-05-03T14:07:25.146Z,95
2017-05-03T14:08:34.255Z,100
2017-05-03T14:09:43.590Z,100
2017-05-03T14:10:52.833Z,100
2017-05-03T14:12:01.926Z,105
2017-05-03T14:13:11.409Z,110
2017-05-03T14:14:20.524Z,105
2017-05-03T14:15:29.955Z,110
2017-05-03T14:16:38.939Z,115
2017-05-03T14:17:47.899Z,115
2017-05-03T14:18:56.857Z,115
2017-05-03T14:20:05.990Z,110
2017-05-03T14:21:15.203Z,100
2017-05-03T14:22:24.167Z,95
2017-05-03T14:23:33.125Z,90
2017-05-03T14:24:42.085Z,90
2017-05-03T14:25:51.046Z,90
2017-05-03T14:27:00.339Z,90
2017-05-03T14:28:09.619Z,90
2017-05-03T14:29:18.580Z,90
2017-05-03T14:30:27.536Z,90
2017-05-03T14:31:36.495Z,90
2017-05-03T14:32:45.704Z,95
2017-05-03T14:33:54.661Z,95
2017-05-03T14:35:03.619Z,95
2017-05-03T14:36:12.719Z,90
2017-05-03T14:37:21.741Z,90
2017-05-03T14:38:31.338Z,90
2017-05-03T14:39:40.507Z,95
2017-05-03T14:40:49.676Z,100
2017-05-03T14:41:59.021Z,105
2017-05-03T14:43:21.563Z,105
2017-05-03T14:44:30.607Z,100
2017-05-03T14:45:39.611Z,105
2017-05-03T14:46:48.681Z,105
2017-05-03T14:47:57.643Z,105
2017-05-03T14:49:06.937Z,110
2017-05-03T14:50:15.979Z,105
2017-05-03T14:51:25.011Z,95
2017-05-03T14:52:34.053Z,90
2017-05-03T14:53:43.012Z,80
2017-05-03T14:54:52.268Z,75
2017-05-03T14:56:01.225Z,80
2017-05-03T14:57:11.003Z,75
2017-05-03T14:58:19.969Z,75
2017-05-03T14:59:29.288Z,80
2017-05-03T15:00:38.910Z,90
2017-05-03T15:01:47.870Z,90
2017-05-03T15:02:56.914Z,95
2017-05-03T15:04:05.874Z,90
2017-05-03T15:05:14.833Z,95
2017-05-03T15:06:24.040Z,105
2017-05-03T15:07:32.996Z,105
2017-05-03T15:08:41.955Z,105
2017-05-03T15:09:50.913Z,100
2017-05-03T15:10:59.867Z,90
2017-05-03T15:12:09.074Z,100
2017-05-03T15:13:18.031Z,105
2017-05-03T15:14:27.075Z,105
2017-05-03T15:15:36.037Z,95
2017-05-03T15:16:44.997Z,85
2017-05-03T15:17:54.209Z,80
2017-05-03T15:19:03.167Z,75
2017-05-03T15:20:12.125Z,75
2017-05-03T15:21:21.084Z,80
2017-05-03T15:22:30.047Z,75
2017-05-03T15:23:39.342Z,85
2017-05-03T15:24:48.304Z,85
2017-05-03T15:25:57.257Z,80
2017-05-03T15:27:06.213Z,70
2017-05-03T15:28:15.170Z,80
2017-05-03T15:29:24.463Z,80
2017-05-03T15:30:33.422Z,80
2017-05-03T15:31:42.459Z,75
2017-05-03T15:32:51.411Z,80
2017-05-03T15:34:00.368Z,75
2017-05-03T15:35:09.663Z,70
2017-05-03T15:36:18.617Z,70
2017-05-03T15:37:27.578Z,70
2017-05-03T15:38:36.535Z,70
2017-05-03T15:39:45.578Z,65
2017-05-03T15:40:54.842Z,65
2017-05-03T15:42:03.795Z,65
2017-05-03T15:43:12.750Z,65
2017-05-03T15:44:21.790Z,65
2017-05-03T15:45:30.745Z,60
2017-05-03T15:46:39.959Z,65
2017-05-03T15:47:48.917Z,65
2017-05-03T15:48:57.873Z,70
2017-05-03T15:50:06.827Z,65
2017-05-03T15:51:15.786Z,70
2017-05-03T15:52:24.993Z,70
2017-05-03T15:53:34.046Z,70
2017-05-03T15:54:43.328Z,70
2017-05-03T15:55:52.283Z,75
2017-05-03T15:57:01.247Z,70
2017-05-03T15:58:10.460Z,80
2017-05-03T15:59:19.422Z,85
2017-05-03T16:00:28.380Z,90
2017-05-03T16:01:37.336Z,85
2017-05-03T16:02:46.296Z,90
2017-05-03T16:03:55.511Z,90
2017-05-03T16:05:04.467Z,80
2017-05-03T16:06:13.423Z,80
2017-05-03T16:07:22.381Z,75
2017-05-03T16:08:31.338Z,75
2017-05-03T16:09:40.891Z,70
2017-05-03T16:10:50.180Z,70
2017-05-03T16:11:59.133Z,70
2017-05-03T16:13:08.088Z,65
2017-05-03T16:14:17.047Z,65
2017-05-03T16:15:26.253Z,60
2017-05-03T16:16:35.209Z,60
2017-05-03T16:17:44.169Z,55
2017-05-03T16:18:53.536Z,55
2017-05-03T16:20:02.815Z,50
2017-05-03T16:21:12.074Z,50